createdAt,value
2018-02-20T00:00:32.784Z,88.20
2018-02-20T00:02:59.605Z,89.20
2018-02-20T00:05:25.632Z,89.10
2018-02-20T00:07:51.673Z,89.60
2018-02-20T00:10:17.724Z,90.00
2018-02-20T00:12:43.724Z,90.10
2018-02-20T00:15:09.730Z,90.10
2018-02-20T00:17:35.737Z,90.30
2018-02-20T00:20:02.546Z,90.50
2018-02-20T00:22:28.604Z,90.50
2018-02-20T00:24:55.347Z,90.90
2018-02-20T00:27:21.394Z,90.80
2018-02-20T00:29:47.426Z,91.10
2018-02-20T00:32:13.445Z,91.40
2018-02-20T00:34:39.478Z,91.40
2018-02-20T00:37:05.518Z,91.90
2018-02-20T00:39:31.516Z,91.60
2018-02-20T00:41:57.535Z,91.70
2018-02-20T00:44:23.555Z,91.70
2018-02-20T00:46:49.598Z,91.50
2018-02-20T00:49:15.650Z,91.60
2018-02-20T00:51:41.630Z,91.30
2018-02-20T00:54:07.656Z,91.40
2018-02-20T00:56:33.646Z,91.70
2018-02-20T00:58:59.665Z,91.70
2018-02-20T01:01:25.685Z,91.70
2018-02-20T01:03:51.724Z,91.80
2018-02-20T01:06:17.745Z,91.80
2018-02-20T01:08:43.742Z,91.90
2018-02-20T01:11:10.477Z,92.10
2018-02-20T01:13:36.560Z,92.00
2018-02-20T01:16:02.545Z,91.90
2018-02-20T01:18:28.576Z,92.20
2018-02-20T01:20:54.628Z,92.00
2018-02-20T01:23:20.664Z,91.90
2018-02-20T01:25:46.712Z,91.80
2018-02-20T01:28:13.494Z,92.20
2018-02-20T01:30:39.516Z,91.90
2018-02-20T01:33:05.620Z,92.20
2018-02-20T01:35:32.387Z,92.20
2018-02-20T01:37:58.400Z,92.10
2018-02-20T01:40:24.392Z,92.10
2018-02-20T01:42:50.420Z,92.20
2018-02-20T01:45:16.442Z,92.30
2018-02-20T01:47:43.184Z,92.10
2018-02-20T01:50:09.967Z,92.20
2018-02-20T01:52:36.018Z,92.20
2018-02-20T01:55:02.110Z,92.40
2018-02-20T01:57:28.149Z,92.60
2018-02-20T01:59:54.222Z,92.60
2018-02-20T02:02:21.000Z,92.60
2018-02-20T02:04:47.978Z,92.60
2018-02-20T02:07:14.049Z,92.60
2018-02-20T02:09:40.097Z,92.60
2018-02-20T02:12:06.105Z,92.60
2018-02-20T02:14:32.140Z,92.60
2018-02-20T02:16:58.135Z,92.60
2018-02-20T02:19:24.155Z,92.40
2018-02-20T02:21:50.166Z,92.70
2018-02-20T02:24:16.173Z,92.50
2018-02-20T02:26:42.205Z,92.50
2018-02-20T02:29:08.234Z,92.70
2018-02-20T02:31:34.973Z,93.00
2018-02-20T02:34:01.020Z,93.00
2018-02-20T02:36:27.068Z,92.70
2018-02-20T02:38:53.856Z,93.20
2018-02-20T02:41:19.954Z,93.50
2018-02-20T02:43:45.980Z,93.20
2018-02-20T02:46:12.003Z,93.30
2018-02-20T02:48:38.052Z,93.20
2018-02-20T02:51:04.877Z,93.30
2018-02-20T02:53:30.933Z,93.30
2018-02-20T02:55:56.946Z,93.40
2018-02-20T02:58:23.739Z,93.30
2018-02-20T03:00:49.759Z,93.30
2018-02-20T03:03:16.533Z,93.50
2018-02-20T03:05:42.569Z,93.40
2018-02-20T03:08:08.564Z,93.50
2018-02-20T03:10:34.644Z,93.60
2018-02-20T03:13:00.680Z,93.60
2018-02-20T03:15:26.736Z,93.50
2018-02-20T03:17:52.790Z,93.60
2018-02-20T03:20:19.570Z,93.90
2018-02-20T03:22:45.620Z,93.80
2018-02-20T03:25:11.650Z,93.80
2018-02-20T03:27:37.668Z,93.80
2018-02-20T03:30:03.692Z,93.60
2018-02-20T03:32:29.715Z,93.70
2018-02-20T03:34:55.804Z,93.90
2018-02-20T03:37:21.786Z,93.80
2018-02-20T03:39:47.810Z,93.60
2018-02-20T03:42:14.549Z,93.70
2018-02-20T03:44:41.372Z,93.90
2018-02-20T03:47:07.398Z,93.60
2018-02-20T03:49:33.430Z,93.50
2018-02-20T03:51:59.464Z,93.50
2018-02-20T03:54:26.241Z,93.40
2018-02-20T03:56:52.269Z,93.40
2018-02-20T03:59:19.017Z,93.50
2018-02-20T04:04:30.682Z,93.50
2018-02-20T04:06:57.461Z,93.50
2018-02-20T04:09:23.478Z,93.40
2018-02-20T04:11:49.509Z,93.50
2018-02-20T04:14:15.516Z,93.60
2018-02-20T04:16:41.555Z,93.50
2018-02-20T04:19:07.581Z,93.40
2018-02-20T04:21:33.602Z,93.30
2018-02-20T04:23:59.613Z,93.70
2018-02-20T04:26:39.423Z,93.40
2018-02-20T04:29:05.495Z,93.40
2018-02-20T04:31:31.553Z,93.40
2018-02-20T04:33:57.578Z,93.50
2018-02-20T04:36:23.600Z,93.40
2018-02-20T04:38:56.686Z,93.40
2018-02-20T04:41:23.451Z,93.30
2018-02-20T04:43:49.463Z,93.20
2018-02-20T04:46:16.254Z,93.40
2018-02-20T04:48:42.260Z,93.40
2018-02-20T04:51:09.003Z,93.30
2018-02-20T04:53:35.078Z,93.20
2018-02-20T04:56:01.161Z,93.30
2018-02-20T04:58:28.063Z,93.30
2018-02-20T05:00:54.091Z,93.20
2018-02-20T05:03:20.871Z,93.30
2018-02-20T05:05:46.986Z,93.20
2018-02-20T05:08:13.760Z,93.30
2018-02-20T05:10:50.794Z,93.30
2018-02-20T05:13:16.783Z,93.30
2018-02-20T05:15:42.782Z,93.30
2018-02-20T05:18:09.559Z,93.30
2018-02-20T05:20:35.547Z,93.30
2018-02-20T05:23:01.537Z,93.30
2018-02-20T05:25:27.559Z,93.30
2018-02-20T05:27:53.564Z,93.20
2018-02-20T05:30:19.555Z,93.20
2018-02-20T05:32:45.575Z,93.30
2018-02-20T05:35:11.584Z,93.30
2018-02-20T05:37:37.678Z,93.20
2018-02-20T05:40:03.869Z,93.10
2018-02-20T05:42:29.914Z,93.00
2018-02-20T05:44:55.980Z,93.10
2018-02-20T05:47:22.006Z,93.00
2018-02-20T05:49:48.037Z,93.10
2018-02-20T05:52:14.060Z,93.10
2018-02-20T05:54:40.080Z,93.10
2018-02-20T05:57:06.103Z,92.90
2018-02-20T05:59:32.151Z,93.00
2018-02-20T06:01:58.933Z,93.20
2018-02-20T06:04:24.957Z,93.20
2018-02-20T06:06:51.085Z,93.20
2018-02-20T06:09:17.108Z,93.30
2018-02-20T06:11:43.176Z,93.30
2018-02-20T06:14:09.233Z,93.30
2018-02-20T06:16:35.354Z,93.30
2018-02-20T06:19:01.353Z,93.40
2018-02-20T06:21:28.135Z,93.50
2018-02-20T06:23:54.176Z,93.50
2018-02-20T06:26:20.192Z,93.80
2018-02-20T06:28:46.268Z,93.70
2018-02-20T06:31:12.292Z,93.30
2018-02-20T06:33:39.107Z,92.60
2018-02-20T06:36:05.471Z,92.60
2018-02-20T06:38:32.271Z,92.30
2018-02-20T06:40:58.464Z,92.20
2018-02-20T06:43:24.528Z,92.40
2018-02-20T06:45:50.557Z,92.30
2018-02-20T06:48:16.607Z,92.40
2018-02-20T06:50:43.674Z,92.40
2018-02-20T06:53:09.721Z,92.30
2018-02-20T06:55:35.762Z,92.10
2018-02-20T06:58:01.787Z,91.80
2018-02-20T07:00:27.808Z,91.00
2018-02-20T07:02:53.898Z,89.60
2018-02-20T07:05:19.954Z,86.30
2018-02-20T07:07:46.079Z,82.70
2018-02-20T07:10:12.416Z,80.20
2018-02-20T07:14:55.912Z,75.50
2018-02-20T07:17:22.079Z,71.00
2018-02-20T07:19:48.511Z,70.50
2018-02-20T07:22:14.973Z,66.40
2018-02-20T07:24:41.517Z,65.30
2018-02-20T07:27:07.735Z,63.00
2018-02-20T07:29:33.941Z,63.70
2018-02-20T07:32:00.319Z,65.70
2018-02-20T07:34:26.791Z,66.90
2018-02-20T07:36:54.029Z,66.20
2018-02-20T07:39:20.400Z,66.10
2018-02-20T07:41:48.379Z,63.30
2018-02-20T07:44:16.193Z,60.90
2018-02-20T07:46:42.584Z,60.90
2018-02-20T07:49:09.032Z,59.70
2018-02-20T07:51:35.467Z,56.40
2018-02-20T07:54:02.010Z,54.60
2018-02-20T07:56:28.542Z,52.20
2018-02-20T07:58:55.100Z,51.90
2018-02-20T08:01:21.451Z,52.10
2018-02-20T08:03:48.019Z,51.90
2018-02-20T08:06:14.461Z,52.20
2018-02-20T08:08:40.851Z,54.40
2018-02-20T08:11:07.249Z,54.90
2018-02-20T08:13:33.712Z,52.80
2018-02-20T08:16:00.076Z,47.70
2018-02-20T08:18:26.482Z,46.70
2018-02-20T08:20:53.633Z,44.60
2018-02-20T08:23:20.043Z,44.60
2018-02-20T08:25:46.394Z,46.80
2018-02-20T08:28:12.719Z,46.40
2018-02-20T08:30:39.170Z,46.40
2018-02-20T08:33:05.587Z,43.40
2018-02-20T08:35:32.051Z,42.30
2018-02-20T08:37:58.514Z,42.60
2018-02-20T08:40:25.068Z,40.00
2018-02-20T09:01:30.467Z,28.00
2018-02-20T09:03:56.984Z,23.30
2018-02-20T09:06:23.899Z,27.10
2018-02-20T09:09:13.930Z,28.20
2018-02-20T09:11:41.836Z,28.20
2018-02-20T09:14:11.339Z,29.00
2018-02-20T09:16:40.653Z,29.40
2018-02-20T09:19:10.059Z,30.40
2018-02-20T09:21:39.491Z,31.40
2018-02-20T09:24:08.919Z,32.30
2018-02-20T09:28:37.697Z,30.90
2018-02-20T09:33:21.159Z,29.10
2018-02-20T09:35:50.676Z,29.10
2018-02-20T09:38:20.188Z,29.50
2018-02-20T09:41:00.055Z,30.10
2018-02-20T09:43:26.503Z,29.50
2018-02-20T09:45:52.984Z,28.70
2018-02-20T09:48:19.388Z,26.80
2018-02-20T09:50:45.705Z,25.90
2018-02-20T09:53:12.162Z,25.30
2018-02-20T09:55:38.569Z,23.60
2018-02-20T09:58:05.130Z,22.20
2018-02-20T10:00:31.491Z,21.80
2018-02-20T10:02:58.000Z,21.70
2018-02-20T10:05:24.395Z,21.50
2018-02-20T10:07:50.891Z,19.80
2018-02-20T10:10:17.981Z,17.70
2018-02-20T10:12:44.410Z,17.60
2018-02-20T10:15:10.879Z,16.60
2018-02-20T10:17:37.269Z,16.10
2018-02-20T10:20:03.678Z,16.50
2018-02-20T10:22:30.032Z,16.70
2018-02-20T10:24:56.522Z,17.40
2018-02-20T10:27:23.100Z,17.80
2018-02-20T10:29:49.575Z,18.10
2018-02-20T10:32:16.041Z,18.70
2018-02-20T10:34:42.556Z,18.90
2018-02-20T10:37:08.974Z,18.70
2018-02-20T10:39:35.414Z,18.30
2018-02-20T10:42:01.869Z,18.00
2018-02-20T10:44:28.314Z,17.80
2018-02-20T10:46:55.439Z,17.40
2018-02-20T10:49:21.873Z,17.40
2018-02-20T10:51:48.325Z,18.50
2018-02-20T10:54:14.782Z,18.90
2018-02-20T10:56:41.151Z,19.30
2018-02-20T10:59:07.566Z,20.80
2018-02-20T11:01:33.884Z,21.20
2018-02-20T11:04:01.833Z,20.30
2018-02-20T11:06:30.912Z,20.30
2018-02-20T11:08:57.299Z,20.10
2018-02-20T11:11:31.407Z,18.90
2018-02-20T11:13:57.970Z,18.50
2018-02-20T11:16:24.545Z,18.00
2018-02-20T11:18:51.101Z,17.60
2018-02-20T11:21:17.520Z,17.20
2018-02-20T11:23:43.978Z,17.60
2018-02-20T11:26:10.367Z,18.60
2018-02-20T11:28:37.559Z,20.70
2018-02-20T11:31:04.095Z,20.70
2018-02-20T11:33:30.545Z,20.20
2018-02-20T11:35:56.955Z,19.70
2018-02-20T11:38:23.430Z,18.70
2018-02-20T11:40:49.810Z,18.30
2018-02-20T11:43:16.926Z,18.10
2018-02-20T11:45:43.438Z,18.10
2018-02-20T11:48:09.930Z,18.00
2018-02-20T11:50:36.377Z,18.10
2018-02-20T11:53:02.804Z,18.00
2018-02-20T11:55:29.217Z,18.40
2018-02-20T11:57:55.823Z,19.00
2018-02-20T12:00:22.315Z,19.40
2018-02-20T12:02:48.687Z,18.30
2018-02-20T12:05:15.077Z,18.30
2018-02-20T12:07:41.263Z,18.40
2018-02-20T12:10:07.613Z,19.00
2018-02-20T12:12:34.504Z,20.30
2018-02-20T12:15:01.139Z,20.20
2018-02-20T12:17:30.758Z,19.80
2018-02-20T12:19:57.300Z,20.40
2018-02-20T12:22:24.299Z,23.70
2018-02-20T12:24:50.481Z,23.60
2018-02-20T12:27:16.872Z,26.30
2018-02-20T12:29:43.247Z,28.80
2018-02-20T12:32:09.701Z,32.00
2018-02-20T12:34:35.920Z,35.50
2018-02-20T12:37:02.335Z,38.30
2018-02-20T12:39:28.802Z,40.60
2018-02-20T12:41:55.256Z,42.60
2018-02-20T12:44:22.958Z,44.50
2018-02-20T12:46:49.271Z,45.30
2018-02-20T12:49:15.691Z,46.40
2018-02-20T12:51:41.931Z,47.80
2018-02-20T12:54:08.987Z,48.10
2018-02-20T12:56:35.168Z,48.20
2018-02-20T12:59:02.287Z,49.40
2018-02-20T13:01:28.818Z,49.40
2018-02-20T13:03:55.009Z,49.90
2018-02-20T13:06:21.423Z,49.90
2018-02-20T13:08:47.864Z,48.70
2018-02-20T13:11:14.348Z,49.70
2018-02-20T13:13:40.858Z,50.10
2018-02-20T13:16:07.363Z,50.00
2018-02-20T13:18:33.584Z,49.90
2018-02-20T13:20:59.986Z,50.50
2018-02-20T13:23:26.509Z,51.20
2018-02-20T13:25:52.948Z,51.50
2018-02-20T13:28:19.338Z,51.90
2018-02-20T13:30:45.780Z,51.80
2018-02-20T13:33:12.304Z,52.00
2018-02-20T13:35:38.750Z,52.00
2018-02-20T13:38:05.287Z,52.20
2018-02-20T13:40:31.817Z,53.10
2018-02-20T13:42:58.231Z,52.80
2018-02-20T13:48:14.255Z,54.20
2018-02-20T13:50:40.717Z,54.60
2018-02-20T13:53:07.101Z,53.60
2018-02-20T13:55:34.348Z,53.90
2018-02-20T13:58:00.725Z,54.10
2018-02-20T14:00:27.117Z,53.80
2018-02-20T14:02:53.552Z,53.60
2018-02-20T14:05:19.891Z,52.90
2018-02-20T14:07:46.452Z,52.40
2018-02-20T14:10:13.002Z,52.60
2018-02-20T14:12:39.587Z,52.50
2018-02-20T14:15:06.153Z,53.20
2018-02-20T14:17:32.762Z,52.60
2018-02-20T14:19:59.170Z,52.10
2018-02-20T14:22:25.627Z,51.90
2018-02-20T14:24:52.201Z,51.30
2018-02-20T14:27:18.735Z,51.20
2018-02-20T14:29:45.244Z,51.10
2018-02-20T14:32:11.653Z,51.20
2018-02-20T14:34:38.087Z,51.40
2018-02-20T14:37:04.511Z,50.80
2018-02-20T14:39:31.055Z,50.90
2018-02-20T14:41:57.376Z,50.40
2018-02-20T14:44:25.857Z,51.10
2018-02-20T14:46:52.114Z,51.00
2018-02-20T14:49:19.232Z,50.70
2018-02-20T14:51:45.631Z,50.70
2018-02-20T14:54:12.841Z,51.00
2018-02-20T14:56:39.194Z,51.00
2018-02-20T14:59:05.660Z,51.10
2018-02-20T15:01:32.051Z,51.30
2018-02-20T15:03:58.491Z,51.30
2018-02-20T15:06:24.905Z,50.80
2018-02-20T15:08:51.419Z,50.80
2018-02-20T15:11:17.815Z,50.70
2018-02-20T15:13:44.211Z,50.80
2018-02-20T15:16:10.546Z,51.40
2018-02-20T15:18:37.021Z,51.50
2018-02-20T15:21:03.421Z,51.60
2018-02-20T15:23:29.946Z,51.40
2018-02-20T15:25:56.288Z,51.90
2018-02-20T15:28:22.781Z,51.70
2018-02-20T15:30:49.189Z,51.80
2018-02-20T15:33:15.692Z,51.70
2018-02-20T15:35:42.119Z,51.70
2018-02-20T15:38:08.549Z,51.90
2018-02-20T15:40:35.024Z,52.40
2018-02-20T15:43:01.511Z,51.60
2018-02-20T15:45:27.914Z,52.50
2018-02-20T15:47:54.314Z,53.80
2018-02-20T15:50:20.725Z,54.10
2018-02-20T15:52:47.086Z,54.00
2018-02-20T15:55:13.592Z,53.90
2018-02-20T15:57:39.942Z,54.10
2018-02-20T16:00:06.314Z,54.80
2018-02-20T16:02:34.131Z,54.80
2018-02-20T16:05:01.204Z,55.10
2018-02-20T16:07:27.586Z,55.10
2018-02-20T16:09:53.988Z,55.00
2018-02-20T16:12:20.323Z,55.30
2018-02-20T16:14:47.429Z,55.70
2018-02-20T16:17:13.845Z,55.70
2018-02-20T16:19:40.917Z,56.10
2018-02-20T16:22:07.275Z,56.10
2018-02-20T16:24:34.494Z,56.80
2018-02-20T16:27:00.919Z,56.70
2018-02-20T16:29:27.311Z,57.20
2018-02-20T16:31:53.654Z,57.30
2018-02-20T16:34:20.020Z,57.80
2018-02-20T16:36:46.456Z,58.00
2018-02-20T16:39:12.881Z,58.10
2018-02-20T16:41:39.367Z,58.00
2018-02-20T16:44:05.703Z,60.10
2018-02-20T16:46:32.136Z,59.80
2018-02-20T16:48:58.627Z,58.50
2018-02-20T16:51:25.127Z,58.40
2018-02-20T16:53:51.504Z,58.80
2018-02-20T16:56:18.591Z,59.50
2018-02-20T16:58:45.014Z,59.50
2018-02-20T17:01:11.402Z,60.10
2018-02-20T17:03:37.769Z,60.20
2018-02-20T17:06:04.135Z,60.90
2018-02-20T17:08:30.575Z,61.50
2018-02-20T17:10:57.008Z,61.70
2018-02-20T17:13:23.413Z,62.70
2018-02-20T17:15:49.809Z,63.20
2018-02-20T17:18:16.203Z,63.20
2018-02-20T17:20:42.590Z,63.40
2018-02-20T17:23:09.102Z,63.60
2018-02-20T17:25:35.451Z,64.10
2018-02-20T17:28:01.810Z,64.30
2018-02-20T17:30:30.820Z,65.00
2018-02-20T17:32:57.264Z,65.20
2018-02-20T17:35:23.675Z,65.60
2018-02-20T17:37:50.026Z,66.50
2018-02-20T17:40:16.420Z,67.10
2018-02-20T17:42:42.916Z,67.30
2018-02-20T17:45:09.264Z,67.40
2018-02-20T17:47:35.668Z,67.70
2018-02-20T17:50:02.090Z,68.20
2018-02-20T17:52:31.471Z,69.20
2018-02-20T17:54:57.821Z,70.50
2018-02-20T17:57:24.264Z,72.20
2018-02-20T17:59:51.411Z,72.60
2018-02-20T18:02:18.531Z,73.10
2018-02-20T18:04:44.962Z,73.00
2018-02-20T18:07:11.841Z,73.90
2018-02-20T18:09:38.237Z,74.60
2018-02-20T18:12:04.659Z,75.60
2018-02-20T18:14:31.112Z,76.30
2018-02-20T18:16:58.291Z,77.10
2018-02-20T18:19:24.718Z,77.00
2018-02-20T18:21:51.060Z,77.50
2018-02-20T18:24:17.466Z,77.90
2018-02-20T18:26:43.758Z,78.60
2018-02-20T18:29:10.244Z,79.20
2018-02-20T18:31:36.674Z,79.60
2018-02-20T18:34:03.111Z,79.90
2018-02-20T18:36:29.519Z,80.10
2018-02-20T18:38:56.498Z,80.10
2018-02-20T18:41:23.255Z,79.90
2018-02-20T18:43:49.803Z,80.50
2018-02-20T18:46:16.196Z,80.00
2018-02-20T18:48:42.706Z,79.80
2018-02-20T18:51:09.208Z,79.50
2018-02-20T18:53:35.571Z,79.30
2018-02-20T18:56:02.040Z,79.20
2018-02-20T18:58:28.439Z,79.00
2018-02-20T19:00:54.801Z,78.70
2018-02-20T19:03:21.366Z,78.80
2018-02-20T19:05:47.769Z,78.60
2018-02-20T19:08:14.258Z,78.40
2018-02-20T19:10:40.631Z,78.00
2018-02-20T19:13:07.819Z,78.00
2018-02-20T19:15:34.322Z,77.90
2018-02-20T19:18:02.414Z,78.00
2018-02-20T19:20:28.788Z,77.90
2018-02-20T19:22:55.192Z,78.10
2018-02-20T19:25:21.599Z,78.30
2018-02-20T19:27:48.035Z,78.10
2018-02-20T19:30:14.421Z,78.30
2018-02-20T19:32:49.675Z,78.40
2018-02-20T19:35:16.189Z,78.70
2018-02-20T19:37:43.288Z,78.70
2018-02-20T19:40:10.549Z,78.70
2018-02-20T19:42:36.947Z,79.60
2018-02-20T19:45:03.323Z,79.20
2018-02-20T19:47:32.447Z,78.90
2018-02-20T19:49:58.790Z,78.20
2018-02-20T19:52:25.157Z,78.50
2018-02-20T19:54:51.682Z,78.40
2018-02-20T19:57:18.099Z,78.60
2018-02-20T19:59:44.568Z,78.90
2018-02-20T20:02:10.987Z,78.90
2018-02-20T20:04:37.503Z,79.10
2018-02-20T20:07:03.924Z,79.30
2018-02-20T20:09:30.355Z,79.40
2018-02-20T20:11:56.771Z,79.80
2018-02-20T20:14:23.219Z,79.70
2018-02-20T20:16:49.607Z,80.00
2018-02-20T20:19:15.938Z,80.00
2018-02-20T20:21:42.357Z,80.10
2018-02-20T20:24:08.783Z,80.30
2018-02-20T20:26:35.140Z,81.20
2018-02-20T20:29:01.495Z,81.50
2018-02-20T20:31:27.854Z,82.00
2018-02-20T20:33:54.261Z,82.00
2018-02-20T20:36:20.588Z,82.50
2018-02-20T20:38:47.087Z,82.70
2018-02-20T20:41:13.614Z,81.90
2018-02-20T20:43:41.020Z,82.90
2018-02-20T20:46:07.409Z,83.10
2018-02-20T20:48:33.880Z,83.10
2018-02-20T20:51:02.144Z,83.60
2018-02-20T20:53:28.664Z,83.60
2018-02-20T20:55:56.238Z,83.70
2018-02-20T20:58:22.685Z,83.80
2018-02-20T21:00:49.155Z,83.80
2018-02-20T21:03:15.688Z,83.20
2018-02-20T21:05:42.086Z,84.00
2018-02-20T21:08:08.493Z,84.10
2018-02-20T21:10:34.916Z,84.40
2018-02-20T21:13:01.355Z,84.60
2018-02-20T21:15:27.709Z,85.10
2018-02-20T21:17:54.209Z,85.30
2018-02-20T21:20:20.647Z,85.70
2018-02-20T21:22:47.030Z,86.10
2018-02-20T21:25:13.419Z,86.40
2018-02-20T21:27:39.853Z,86.50
2018-02-20T21:30:06.390Z,86.20
2018-02-20T21:32:32.847Z,86.80
2018-02-20T21:34:59.223Z,86.90
2018-02-20T21:37:25.674Z,87.40
2018-02-20T21:39:52.131Z,87.60
2018-02-20T21:42:18.560Z,87.50
2018-02-20T21:44:45.092Z,87.30
2018-02-20T21:47:11.478Z,87.00
2018-02-20T21:49:37.885Z,86.80
2018-02-20T21:52:04.293Z,87.00
2018-02-20T21:54:30.643Z,87.30
2018-02-20T21:56:56.987Z,87.40
2018-02-20T21:59:23.439Z,87.20
2018-02-20T22:01:49.814Z,87.40
2018-02-20T22:04:16.249Z,87.80
2018-02-20T22:06:42.659Z,87.80
2018-02-20T22:09:09.060Z,87.90
2018-02-20T22:11:36.058Z,87.80
2018-02-20T22:14:02.495Z,87.70
2018-02-20T22:16:28.935Z,87.90
2018-02-20T22:18:55.282Z,88.40
2018-02-20T22:21:21.734Z,88.40
2018-02-20T22:23:48.017Z,88.50
2018-02-20T22:26:14.370Z,88.60
2018-02-20T22:28:40.691Z,89.00
2018-02-20T22:31:07.121Z,89.10
2018-02-20T22:33:33.441Z,89.20
2018-02-20T22:35:59.875Z,89.10
2018-02-20T22:38:26.133Z,88.90
2018-02-20T22:40:52.532Z,88.70
2018-02-20T22:43:18.928Z,88.70
2018-02-20T22:45:45.248Z,87.60
2018-02-20T22:48:11.595Z,88.50
2018-02-20T22:50:38.021Z,88.60
2018-02-20T22:53:04.347Z,88.60
2018-02-20T22:55:30.697Z,88.80
2018-02-20T22:57:57.027Z,89.20
2018-02-20T23:00:23.493Z,89.40
2018-02-20T23:02:49.883Z,89.50
2018-02-20T23:05:16.279Z,89.70
2018-02-20T23:07:42.645Z,89.70
2018-02-20T23:10:09.130Z,89.80
2018-02-20T23:12:35.471Z,89.90
2018-02-20T23:15:01.893Z,89.80
2018-02-20T23:17:29.721Z,89.70
2018-02-20T23:19:56.274Z,89.50
2018-02-20T23:22:22.886Z,89.50
2018-02-20T23:24:50.118Z,89.50
2018-02-20T23:27:16.537Z,89.40
2018-02-20T23:29:42.912Z,89.50
2018-02-20T23:32:09.379Z,89.60
2018-02-20T23:34:35.985Z,89.40
2018-02-20T23:37:02.417Z,89.70
2018-02-20T23:39:28.803Z,89.90
2018-02-20T23:41:55.587Z,90.00
2018-02-20T23:44:21.990Z,90.00
2018-02-20T23:46:48.521Z,89.80
2018-02-20T23:49:14.999Z,89.90
2018-02-20T23:51:41.378Z,89.90
2018-02-20T23:54:07.728Z,89.70
2018-02-20T23:56:34.115Z,89.60
2018-02-20T23:59:00.473Z,89.30
